Time;durP1;ratioP1;P1;durP2;ratioP2;P2;SDS_P1;SDS_P2;PMS_P1;PMS_P2;Temp;Humidity;BMP_temperature;BMP_pressure;BME280_temperature;BME280_humidity;BME280_pressure;Samples;Min_cycle;Max_cycle;Signal;HPM_P1;HPM_P2
2021/10/06 00:01:37;;;;;;;7.45;5.03;;;11.30;99.90;;;;;;5044306;28;20077;-67
2021/10/06 00:04:03;;;;;;;9.15;5.10;;;11.30;99.90;;;;;;5044767;28;20503;-67
2021/10/06 00:06:28;;;;;;;6.53;4.35;;;11.30;99.90;;;;;;5066039;28;20066;-67
2021/10/06 00:08:54;;;;;;;6.63;4.53;;;11.30;99.90;;;;;;5051356;28;20049;-67
2021/10/06 00:11:20;;;;;;;8.05;4.80;;;11.30;99.90;;;;;;5049139;28;20082;-67
2021/10/06 00:13:45;;;;;;;8.40;4.38;;;11.30;99.90;;;;;;5053648;28;20474;-67
2021/10/06 00:16:12;;;;;;;8.55;4.30;;;11.30;99.90;;;;;;5050968;28;20539;-67
2021/10/06 00:18:39;;;;;;;8.70;4.05;;;11.30;99.90;;;;;;5068167;28;20040;-67
2021/10/06 00:21:05;;;;;;;6.05;3.95;;;11.30;99.90;;;;;;5065531;28;20090;-67
2021/10/06 00:23:32;;;;;;;5.88;4.15;;;11.30;99.90;;;;;;5068233;28;20052;-67
2021/10/06 00:25:59;;;;;;;9.15;4.32;;;11.30;99.90;;;;;;5048797;28;20060;-67
2021/10/06 00:28:25;;;;;;;7.10;3.85;;;11.20;99.90;;;;;;5067666;28;20055;-67
2021/10/06 00:30:51;;;;;;;6.82;3.58;;;11.20;99.90;;;;;;5049539;28;20351;-67
2021/10/06 00:33:16;;;;;;;6.05;3.85;;;11.20;99.90;;;;;;5068047;28;20051;-67
2021/10/06 00:35:42;;;;;;;8.00;3.78;;;11.10;99.90;;;;;;5050484;28;20040;-67
2021/10/06 00:38:07;;;;;;;9.20;4.32;;;11.10;99.90;;;;;;5048110;28;20510;-67
2021/10/06 00:40:33;;;;;;;7.55;4.10;;;11.00;99.90;;;;;;5043915;28;20400;-67
2021/10/06 00:42:59;;;;;;;6.55;3.80;;;11.00;99.90;;;;;;5051274;28;20035;-67
2021/10/06 00:45:24;;;;;;;6.68;3.47;;;11.10;99.90;;;;;;5049698;28;20106;-67
2021/10/06 00:47:50;;;;;;;7.55;3.50;;;11.10;99.90;;;;;;5051393;28;20478;-67
2021/10/06 00:50:16;;;;;;;7.63;3.33;;;11.10;99.90;;;;;;5054318;28;20065;-67
2021/10/06 00:52:44;;;;;;;4.55;3.38;;;11.00;99.90;;;;;;5061636;28;20508;-67
2021/10/06 00:55:12;;;;;;;8.13;3.10;;;11.00;99.90;;;;;;5068835;28;20063;-67
2021/10/06 00:57:38;;;;;;;7.65;4.00;;;11.00;99.90;;;;;;5050750;28;20079;-67
2021/10/06 01:00:05;;;;;;;5.13;2.60;;;10.90;99.90;;;;;;5067386;28;20055;-67
2021/10/06 01:02:30;;;;;;;7.30;3.10;;;10.90;99.90;;;;;;5067769;28;20135;-67
2021/10/06 01:04:56;;;;;;;6.00;3.10;;;10.90;99.90;;;;;;5034276;28;20132;-67
2021/10/06 01:07:22;;;;;;;6.07;2.65;;;10.80;99.90;;;;;;5047935;28;20071;-67
2021/10/06 01:09:47;;;;;;;6.15;3.08;;;10.70;99.90;;;;;;5051878;28;20045;-67
2021/10/06 01:12:13;;;;;;;4.45;2.22;;;10.70;99.90;;;;;;5051317;28;20090;-67
2021/10/06 01:14:39;;;;;;;4.38;2.72;;;10.70;99.90;;;;;;5067132;28;20041;-67
2021/10/06 01:17:05;;;;;;;6.53;2.97;;;10.70;99.90;;;;;;5051901;28;20044;-67
2021/10/06 01:19:32;;;;;;;7.40;3.60;;;10.70;99.90;;;;;;5046114;28;20041;-67
2021/10/06 01:21:59;;;;;;;6.03;3.10;;;10.70;99.90;;;;;;5055015;28;20053;-67
2021/10/06 01:24:27;;;;;;;4.97;3.10;;;10.70;99.90;;;;;;5057543;28;20048;-67
2021/10/06 01:26:53;;;;;;;4.53;3.15;;;10.80;99.90;;;;;;5051124;28;20040;-67
2021/10/06 01:29:18;;;;;;;8.15;3.40;;;10.80;99.90;;;;;;5069538;28;20040;-67
2021/10/06 01:31:46;;;;;;;5.47;2.80;;;10.80;99.90;;;;;;5048712;28;20040;-67
2021/10/06 01:34:12;;;;;;;6.20;3.45;;;10.80;99.90;;;;;;5052564;28;20045;-67
2021/10/06 01:36:37;;;;;;;6.00;3.13;;;10.90;99.90;;;;;;5069732;28;20106;-67
2021/10/06 01:39:08;;;;;;;6.25;3.70;;;10.80;99.90;;;;;;5052637;28;20052;-67
2021/10/06 01:41:35;;;;;;;6.38;3.25;;;10.80;99.90;;;;;;5031432;28;20036;-67
2021/10/06 01:44:02;;;;;;;5.72;3.60;;;10.90;99.90;;;;;;5068535;28;20040;-67
2021/10/06 01:46:28;;;;;;;6.50;3.28;;;10.80;99.90;;;;;;5068490;28;20044;-67
2021/10/06 01:48:54;;;;;;;7.88;3.47;;;10.80;99.90;;;;;;5050090;28;20371;-67
2021/10/06 01:51:20;;;;;;;5.75;3.30;;;10.80;99.90;;;;;;5047711;28;20036;-67
2021/10/06 01:53:45;;;;;;;5.07;3.17;;;10.80;99.90;;;;;;5039135;28;20466;-67
2021/10/06 01:56:11;;;;;;;5.95;3.55;;;10.90;99.90;;;;;;5054899;28;20040;-67
2021/10/06 01:58:37;;;;;;;10.20;3.90;;;10.90;99.90;;;;;;5048394;28;20055;-67
2021/10/06 02:01:03;;;;;;;6.78;3.50;;;10.90;99.90;;;;;;5067941;28;20127;-67
2021/10/06 02:03:29;;;;;;;6.63;3.13;;;10.90;99.90;;;;;;5039290;28;20040;-67
2021/10/06 02:05:55;;;;;;;5.10;3.60;;;10.90;99.90;;;;;;5069655;28;20041;-67
2021/10/06 02:08:21;;;;;;;4.88;3.83;;;10.90;99.90;;;;;;5068620;28;20494;-67
2021/10/06 02:10:47;;;;;;;6.38;4.05;;;11.00;99.90;;;;;;5068218;28;20067;-67
2021/10/06 02:13:13;;;;;;;4.70;3.72;;;10.90;99.90;;;;;;5049988;28;20047;-67
2021/10/06 02:15:39;;;;;;;6.85;3.33;;;11.00;99.90;;;;;;5065457;28;20040;-67
2021/10/06 02:18:05;;;;;;;5.97;4.20;;;11.00;99.90;;;;;;5058385;28;20047;-67
2021/10/06 02:20:31;;;;;;;5.78;3.58;;;11.00;99.90;;;;;;5068139;28;20037;-67
2021/10/06 02:22:56;;;;;;;6.38;3.90;;;10.90;99.90;;;;;;5069236;28;20186;-67
2021/10/06 02:25:22;;;;;;;7.85;4.20;;;11.00;99.90;;;;;;5067846;28;20119;-67
2021/10/06 02:27:48;;;;;;;5.88;4.00;;;11.00;99.90;;;;;;5067712;28;20044;-67
2021/10/06 02:30:15;;;;;;;7.55;4.07;;;11.00;99.90;;;;;;5033235;28;20041;-67
2021/10/06 02:32:41;;;;;;;7.72;3.42;;;11.00;99.90;;;;;;5067435;28;20521;-67
2021/10/06 02:35:08;;;;;;;5.70;3.53;;;11.00;99.90;;;;;;5049801;28;20052;-67
2021/10/06 02:37:33;;;;;;;5.80;3.88;;;11.00;99.90;;;;;;5090750;22;20052;-77
2021/10/06 02:39:59;;;;;;;11.63;4.38;;;11.00;99.90;;;;;;5087105;28;20036;-78
2021/10/06 02:42:25;;;;;;;8.63;4.18;;;11.00;99.90;;;;;;5083866;28;20072;-78
2021/10/06 02:44:50;;;;;;;6.80;4.00;;;11.00;99.90;;;;;;5085033;28;20092;-78
2021/10/06 02:47:16;;;;;;;9.10;4.55;;;11.00;99.90;;;;;;5084246;28;20036;-78
2021/10/06 02:49:41;;;;;;;4.68;3.75;;;11.00;99.90;;;;;;5083981;28;20044;-78
2021/10/06 02:52:07;;;;;;;7.88;4.63;;;11.00;99.90;;;;;;5085374;28;20049;-78
2021/10/06 02:54:33;;;;;;;6.65;4.40;;;11.00;99.90;;;;;;5086224;28;20040;-78
2021/10/06 02:57:01;;;;;;;7.95;4.45;;;11.00;99.90;;;;;;5081160;28;20033;-78
2021/10/06 02:59:28;;;;;;;5.85;4.80;;;11.00;99.90;;;;;;5068791;28;20118;-78
2021/10/06 03:01:54;;;;;;;6.47;4.90;;;11.00;99.90;;;;;;5087286;28;20040;-78
2021/10/06 03:04:20;;;;;;;8.18;5.22;;;11.00;99.90;;;;;;5086894;28;20048;-78
2021/10/06 03:06:45;;;;;;;6.45;5.15;;;11.00;99.90;;;;;;5090432;28;20079;-78
2021/10/06 03:09:11;;;;;;;9.52;5.82;;;11.00;99.90;;;;;;5092299;28;20399;-77
2021/10/06 03:11:37;;;;;;;6.13;5.07;;;11.00;99.90;;;;;;5091019;28;20088;-78
2021/10/06 03:14:03;;;;;;;12.52;6.13;;;11.00;99.90;;;;;;5090884;28;20040;-77
2021/10/06 03:16:29;;;;;;;6.25;5.45;;;11.00;99.90;;;;;;5089738;28;20044;-78
2021/10/06 03:18:54;;;;;;;8.23;5.43;;;11.00;99.90;;;;;;5091587;28;20044;-78
2021/10/06 03:21:20;;;;;;;7.85;5.07;;;11.00;99.90;;;;;;5090816;28;20083;-78
2021/10/06 03:23:46;;;;;;;5.85;5.03;;;11.00;99.90;;;;;;5090409;28;20048;-78
2021/10/06 03:26:12;;;;;;;9.93;5.68;;;11.00;99.90;;;;;;5090213;28;20082;-78
2021/10/06 03:28:37;;;;;;;8.27;5.63;;;11.00;99.90;;;;;;5070671;28;20076;-78
2021/10/06 03:31:03;;;;;;;8.27;6.03;;;11.00;99.90;;;;;;5074234;28;20113;-78
2021/10/06 03:33:29;;;;;;;8.93;6.25;;;11.00;99.90;;;;;;5089687;28;20050;-78
2021/10/06 03:35:54;;;;;;;9.88;5.68;;;11.10;99.90;;;;;;5089107;28;20036;-78
2021/10/06 03:38:20;;;;;;;9.55;5.95;;;11.00;99.90;;;;;;5070838;28;20189;-77
2021/10/06 03:40:46;;;;;;;6.63;5.45;;;11.00;99.90;;;;;;5088650;28;20044;-77
2021/10/06 03:43:11;;;;;;;7.40;5.78;;;11.00;99.90;;;;;;5088647;28;20382;-77
2021/10/06 03:45:37;;;;;;;8.05;6.60;;;11.10;99.90;;;;;;5088127;28;20036;-78
2021/10/06 03:48:03;;;;;;;9.13;6.20;;;11.10;99.90;;;;;;5087246;28;20176;-78
2021/10/06 03:50:28;;;;;;;8.30;6.10;;;11.10;99.90;;;;;;5089766;28;20027;-77
2021/10/06 03:52:54;;;;;;;8.32;5.95;;;11.10;99.90;;;;;;5089249;28;20044;-77
2021/10/06 03:55:19;;;;;;;9.52;5.53;;;11.10;99.90;;;;;;5076851;28;20043;-78
2021/10/06 03:57:45;;;;;;;9.23;5.43;;;11.10;99.90;;;;;;5084309;28;20040;-78
2021/10/06 04:00:12;;;;;;;10.07;5.65;;;11.10;99.90;;;;;;5080947;28;20054;-78
2021/10/06 04:02:38;;;;;;;6.43;4.20;;;11.10;99.90;;;;;;5090554;28;20115;-78
2021/10/06 04:05:06;;;;;;;9.15;5.05;;;11.10;99.90;;;;;;5079403;28;20076;-77
2021/10/06 04:07:32;;;;;;;8.20;4.75;;;11.10;99.90;;;;;;5088056;28;20043;-78
2021/10/06 04:09:57;;;;;;;9.30;4.93;;;11.10;99.90;;;;;;5089072;28;20564;-78
2021/10/06 04:12:23;;;;;;;6.28;3.83;;;11.10;99.90;;;;;;5083134;28;20470;-78
2021/10/06 04:14:48;;;;;;;9.95;4.05;;;11.10;99.90;;;;;;5090053;28;20065;-78
2021/10/06 04:17:14;;;;;;;7.00;3.80;;;11.10;99.90;;;;;;5088483;28;20039;-78
2021/10/06 04:19:39;;;;;;;7.95;3.78;;;11.10;99.90;;;;;;5087661;28;20405;-77
2021/10/06 04:22:05;;;;;;;6.85;3.65;;;11.10;99.90;;;;;;5088565;28;20032;-77
2021/10/06 04:24:31;;;;;;;6.05;3.72;;;11.10;99.90;;;;;;5089093;28;20435;-77
2021/10/06 04:26:56;;;;;;;6.47;3.33;;;11.10;99.90;;;;;;5088739;28;20386;-78
2021/10/06 04:29:22;;;;;;;6.43;3.08;;;11.10;99.90;;;;;;5087912;28;20043;-78
2021/10/06 04:31:47;;;;;;;5.28;3.22;;;11.10;99.90;;;;;;5085330;28;20036;-78
2021/10/06 04:34:13;;;;;;;8.07;3.42;;;11.00;99.90;;;;;;5089017;28;20040;-78
2021/10/06 04:36:38;;;;;;;7.82;3.53;;;10.90;99.90;;;;;;5086745;28;20119;-77
2021/10/06 04:39:04;;;;;;;5.40;2.80;;;10.90;99.90;;;;;;5066289;28;20538;-78
2021/10/06 04:41:30;;;;;;;8.07;3.30;;;10.90;99.90;;;;;;5090649;28;20043;-78
2021/10/06 04:43:55;;;;;;;6.57;3.20;;;10.90;99.90;;;;;;5085602;28;20166;-77
2021/10/06 04:46:21;;;;;;;5.25;2.90;;;10.90;99.90;;;;;;5063539;28;20039;-78
2021/10/06 04:48:47;;;;;;;4.88;2.97;;;10.90;99.90;;;;;;5089977;28;20058;-78
2021/10/06 04:51:13;;;;;;;5.75;3.42;;;10.90;99.90;;;;;;5088343;28;20086;-78
2021/10/06 04:53:38;;;;;;;4.10;2.92;;;10.90;99.90;;;;;;5072064;28;20036;-77
2021/10/06 04:56:04;;;;;;;5.78;3.80;;;10.80;99.90;;;;;;5055440;28;20045;-77
2021/10/06 04:58:30;;;;;;;9.07;4.47;;;10.80;99.90;;;;;;5081837;28;20059;-77
2021/10/06 05:00:55;;;;;;;5.22;3.63;;;10.80;99.90;;;;;;5057963;28;20025;-77
2021/10/06 05:03:21;;;;;;;5.63;4.28;;;10.90;99.90;;;;;;5087032;28;20105;-77
2021/10/06 05:05:47;;;;;;;7.28;3.83;;;10.90;99.90;;;;;;5088864;28;20036;-77
2021/10/06 05:08:12;;;;;;;6.82;4.30;;;10.90;99.90;;;;;;5088320;28;20067;-77
2021/10/06 05:10:38;;;;;;;7.15;4.78;;;10.90;99.90;;;;;;5085187;28;20044;-77
2021/10/06 05:13:04;;;;;;;8.13;4.70;;;11.00;99.90;;;;;;5084643;28;20043;-77
2021/10/06 05:15:30;;;;;;;6.55;5.38;;;11.00;99.90;;;;;;5080670;28;20389;-77
2021/10/06 05:17:55;;;;;;;6.10;5.35;;;10.90;99.90;;;;;;5088933;28;20127;-77
2021/10/06 05:20:21;;;;;;;7.40;5.65;;;10.90;99.90;;;;;;5086514;28;20152;-77
2021/10/06 05:22:47;;;;;;;6.10;5.50;;;10.90;99.90;;;;;;5083428;28;20117;-77
2021/10/06 05:25:12;;;;;;;8.05;5.55;;;10.90;99.90;;;;;;5071792;28;20055;-77
2021/10/06 05:27:38;;;;;;;7.68;5.80;;;10.90;99.90;;;;;;5070233;28;20464;-77
2021/10/06 05:30:06;;;;;;;7.28;5.50;;;10.90;99.90;;;;;;5086781;28;20036;-77
2021/10/06 05:32:31;;;;;;;7.88;5.80;;;11.00;99.90;;;;;;5088958;28;20071;-77
2021/10/06 05:34:57;;;;;;;9.07;5.55;;;11.00;99.90;;;;;;5087411;28;20064;-78
2021/10/06 05:37:23;;;;;;;8.48;5.55;;;11.00;99.90;;;;;;5071708;28;20047;-77
2021/10/06 05:39:48;;;;;;;6.05;4.35;;;11.00;99.90;;;;;;5088164;28;20439;-77
2021/10/06 05:42:14;;;;;;;7.10;5.80;;;11.00;99.90;;;;;;5086874;28;20096;-78
2021/10/06 05:44:40;;;;;;;5.53;5.00;;;11.00;99.90;;;;;;5076856;28;20047;-77
2021/10/06 05:47:05;;;;;;;6.38;5.07;;;11.00;99.90;;;;;;5071325;28;20041;-78
2021/10/06 05:49:31;;;;;;;8.50;5.47;;;11.00;99.90;;;;;;5088166;28;20035;-77
2021/10/06 05:51:57;;;;;;;5.82;5.05;;;11.00;99.90;;;;;;5087108;28;20067;-77
2021/10/06 05:54:22;;;;;;;7.20;5.15;;;10.90;99.90;;;;;;5088841;28;20040;-77
2021/10/06 05:56:48;;;;;;;7.30;5.07;;;11.00;99.90;;;;;;5078016;28;20039;-77
2021/10/06 05:59:13;;;;;;;8.27;4.70;;;10.90;99.90;;;;;;5069949;28;20101;-77
2021/10/06 06:01:39;;;;;;;7.30;4.35;;;10.90;99.90;;;;;;5079777;28;20048;-77
2021/10/06 06:04:04;;;;;;;6.32;4.18;;;11.00;99.90;;;;;;5077827;28;20047;-77
2021/10/06 06:06:30;;;;;;;7.38;3.70;;;10.90;99.90;;;;;;5080589;28;20043;-77
2021/10/06 06:08:56;;;;;;;7.78;4.03;;;10.90;99.90;;;;;;5053901;28;20060;-77
2021/10/06 06:11:22;;;;;;;5.35;3.75;;;10.90;99.90;;;;;;5060757;28;20131;-77
2021/10/06 06:13:51;;;;;;;8.52;4.13;;;10.90;99.90;;;;;;5065868;28;20482;-77
2021/10/06 06:16:17;;;;;;;6.10;4.22;;;10.90;99.90;;;;;;5082461;28;20051;-77
2021/10/06 06:18:43;;;;;;;4.75;3.58;;;10.90;99.90;;;;;;5072483;28;20040;-77
2021/10/06 06:21:09;;;;;;;5.07;4.57;;;10.90;99.90;;;;;;5087909;28;20135;-77
2021/10/06 06:23:34;;;;;;;6.78;5.22;;;11.00;99.90;;;;;;5086210;28;20036;-77
2021/10/06 06:26:00;;;;;;;5.03;4.53;;;10.90;99.90;;;;;;5088599;28;20051;-77
2021/10/06 06:28:26;;;;;;;7.80;4.63;;;11.00;99.90;;;;;;5085821;28;20029;-77
2021/10/06 06:30:52;;;;;;;6.00;4.65;;;10.90;99.90;;;;;;5078353;28;20500;-77
2021/10/06 06:33:17;;;;;;;6.22;4.25;;;10.90;99.90;;;;;;5070222;28;20072;-77
2021/10/06 06:35:43;;;;;;;4.90;4.13;;;10.90;99.90;;;;;;5084323;28;20036;-76
2021/10/06 06:38:08;;;;;;;5.57;4.03;;;10.90;99.90;;;;;;5076406;28;20106;-77
2021/10/06 06:40:34;;;;;;;4.75;4.20;;;10.90;99.90;;;;;;5082822;28;20097;-77
2021/10/06 06:43:00;;;;;;;5.20;4.32;;;10.90;99.90;;;;;;5085626;28;20044;-77
2021/10/06 06:45:26;;;;;;;6.47;4.13;;;11.00;99.90;;;;;;5086667;28;20481;-77
2021/10/06 06:47:51;;;;;;;4.75;3.90;;;11.00;99.90;;;;;;5081066;28;20032;-78
2021/10/06 06:50:18;;;;;;;3.90;3.50;;;11.20;99.90;;;;;;5086674;28;20085;-77
2021/10/06 06:52:44;;;;;;;4.43;3.80;;;11.20;99.90;;;;;;5065197;28;20049;-77
2021/10/06 06:55:10;;;;;;;5.25;3.60;;;11.60;99.90;;;;;;5065385;28;20078;-78
2021/10/06 06:57:36;;;;;;;4.32;3.47;;;11.90;99.90;;;;;;5065852;28;20355;-77
2021/10/06 07:00:03;;;;;;;4.75;3.10;;;11.90;99.90;;;;;;5078990;28;20514;-77
2021/10/06 07:02:29;;;;;;;7.43;3.63;;;12.00;99.90;;;;;;5081948;28;20036;-77
2021/10/06 07:04:54;;;;;;;4.90;3.35;;;12.00;99.90;;;;;;5079878;28;20535;-77
2021/10/06 07:07:20;;;;;;;4.20;3.00;;;12.10;99.90;;;;;;5085123;28;20048;-77
2021/10/06 07:09:47;;;;;;;4.70;3.20;;;12.00;99.90;;;;;;5083497;28;20031;-77
2021/10/06 07:12:18;;;;;;;5.07;3.13;;;12.00;99.90;;;;;;5087040;28;20069;-77
2021/10/06 07:14:44;;;;;;;5.10;3.33;;;12.00;99.90;;;;;;5079379;28;20044;-77
2021/10/06 07:17:11;;;;;;;3.50;2.75;;;12.10;99.90;;;;;;5076035;28;20036;-77
2021/10/06 07:19:37;;;;;;;4.78;2.72;;;12.00;99.90;;;;;;5083726;28;20043;-76
2021/10/06 07:22:04;;;;;;;4.65;3.05;;;11.90;99.90;;;;;;5085173;28;20088;-76
2021/10/06 07:24:30;;;;;;;5.05;3.40;;;11.90;99.90;;;;;;5087186;28;20035;-76
2021/10/06 07:26:56;;;;;;;4.25;3.15;;;11.90;99.90;;;;;;5082817;28;20052;-76
2021/10/06 07:29:21;;;;;;;5.30;2.50;;;11.80;99.90;;;;;;5080450;28;20043;-77
2021/10/06 07:31:47;;;;;;;2.67;2.13;;;11.90;99.90;;;;;;5079849;28;20047;-77
2021/10/06 07:34:12;;;;;;;3.20;2.22;;;11.90;99.90;;;;;;5087564;28;20040;-78
2021/10/06 07:36:38;;;;;;;2.75;2.20;;;11.90;99.90;;;;;;5089024;28;20043;-77
2021/10/06 07:39:05;;;;;;;3.60;2.28;;;12.00;99.90;;;;;;5084219;28;20398;-77
2021/10/06 07:41:31;;;;;;;4.28;2.38;;;12.00;99.90;;;;;;5085993;28;20048;-77
2021/10/06 07:43:56;;;;;;;3.88;2.30;;;12.10;99.90;;;;;;5088387;28;20043;-77
2021/10/06 07:46:22;;;;;;;5.22;2.50;;;12.30;99.90;;;;;;5090013;28;20050;-77
2021/10/06 07:48:48;;;;;;;3.03;2.13;;;12.30;99.90;;;;;;5087801;28;20399;-77
2021/10/06 07:51:13;;;;;;;4.18;2.42;;;12.30;99.90;;;;;;5082046;28;20041;-77
2021/10/06 07:53:39;;;;;;;4.10;2.20;;;12.40;99.90;;;;;;5088790;28;20032;-77
2021/10/06 07:56:05;;;;;;;3.53;2.50;;;12.30;99.90;;;;;;5087693;28;20036;-73
2021/10/06 07:58:31;;;;;;;4.28;2.50;;;12.30;99.90;;;;;;5087416;28;20047;-76
2021/10/06 08:00:56;;;;;;;3.60;2.25;;;12.40;99.90;;;;;;5085159;28;20042;-75
2021/10/06 08:03:22;;;;;;;3.90;2.20;;;12.50;99.90;;;;;;5087914;28;20111;-78
2021/10/06 08:05:48;;;;;;;2.95;2.10;;;12.50;99.90;;;;;;5084851;28;20046;-78
2021/10/06 08:08:14;;;;;;;4.13;2.42;;;12.50;99.90;;;;;;5090799;28;20485;-78
2021/10/06 08:10:40;;;;;;;4.47;2.58;;;12.50;99.90;;;;;;5090799;28;20127;-78
2021/10/06 08:13:07;;;;;;;3.72;2.28;;;12.50;99.90;;;;;;5089447;28;20040;-77
2021/10/06 08:15:34;;;;;;;2.88;2.58;;;12.40;99.90;;;;;;5091093;28;20412;-77
2021/10/06 08:18:00;;;;;;;3.00;2.42;;;12.30;99.90;;;;;;5090824;28;20097;-77
2021/10/06 08:20:32;;;;;;;3.30;3.00;;;12.20;99.90;;;;;;5090976;28;20063;-77
2021/10/06 08:23:01;;;;;;;3.33;3.03;;;12.20;99.90;;;;;;5087199;28;20047;-77
2021/10/06 08:25:27;;;;;;;3.40;3.10;;;12.10;99.90;;;;;;5090433;28;20086;-77
2021/10/06 08:27:54;;;;;;;3.53;3.20;;;12.10;99.90;;;;;;5090256;28;20044;-77
2021/10/06 08:30:20;;;;;;;5.25;3.80;;;12.00;99.90;;;;;;5084964;28;20050;-76
2021/10/06 08:32:46;;;;;;;6.07;3.83;;;12.00;99.90;;;;;;5086459;28;20040;-76
2021/10/06 08:35:12;;;;;;;5.40;4.13;;;12.00;99.90;;;;;;5090549;28;20058;-76
2021/10/06 08:37:37;;;;;;;5.68;3.70;;;12.10;99.90;;;;;;5090877;28;20400;-76
2021/10/06 08:40:04;;;;;;;5.22;3.85;;;12.10;99.90;;;;;;5068731;28;20607;-76
2021/10/06 08:42:31;;;;;;;5.00;3.95;;;12.00;99.90;;;;;;5082621;28;20047;-76
2021/10/06 08:45:03;;;;;;;3.13;2.83;;;12.10;99.90;;;;;;5077934;28;20066;-75
2021/10/06 08:47:29;;;;;;;4.65;3.45;;;12.10;99.90;;;;;;5086937;28;20040;-76
2021/10/06 08:49:54;;;;;;;4.90;3.17;;;12.10;99.90;;;;;;5064128;28;20139;-74
2021/10/06 08:52:20;;;;;;;5.40;3.28;;;12.20;99.90;;;;;;5083943;28;20757;-75
2021/10/06 08:54:45;;;;;;;4.43;3.03;;;12.20;99.90;;;;;;5081495;28;20082;-75
2021/10/06 08:57:18;;;;;;;4.90;3.50;;;12.20;99.90;;;;;;5089823;28;20071;-75
2021/10/06 08:59:44;;;;;;;3.53;3.22;;;12.20;99.90;;;;;;5079621;28;20032;-75
2021/10/06 09:02:14;;;;;;;3.08;2.85;;;12.30;99.90;;;;;;5084472;28;20036;-75
2021/10/06 09:04:41;;;;;;;4.22;3.40;;;12.20;99.90;;;;;;5086667;28;20066;-77
2021/10/06 09:07:07;;;;;;;3.70;3.15;;;12.10;99.90;;;;;;5089816;28;20118;-76
2021/10/06 09:09:35;;;;;;;6.00;3.33;;;12.10;99.90;;;;;;5077480;28;20048;-75
2021/10/06 09:12:03;;;;;;;4.32;3.42;;;12.10;99.90;;;;;;5086426;28;20055;-75
2021/10/06 09:14:30;;;;;;;4.78;3.72;;;12.10;99.90;;;;;;5086002;28;20040;-75
2021/10/06 09:17:04;;;;;;;4.47;3.40;;;12.20;99.90;;;;;;5088821;28;20036;-75
2021/10/06 09:19:36;;;;;;;3.63;3.33;;;12.20;99.90;;;;;;5086246;28;20051;-75
2021/10/06 09:22:02;;;;;;;4.85;3.53;;;12.30;99.90;;;;;;5088488;28;20050;-75
2021/10/06 09:24:55;;;;;;;4.07;3.65;;;12.40;99.90;;;;;;5080619;28;20048;-75
2021/10/06 09:27:28;;;;;;;4.05;3.60;;;12.50;99.90;;;;;;5087175;28;20052;-75
2021/10/06 09:29:57;;;;;;;6.70;3.63;;;12.50;99.90;;;;;;5086772;28;20032;-75
2021/10/06 09:32:23;;;;;;;4.95;3.70;;;12.60;99.90;;;;;;5069674;28;20576;-75
2021/10/06 09:35:21;;;;;;;5.35;3.50;;;12.60;99.90;;;;;;5084133;28;20119;-75
2021/10/06 09:37:52;;;;;;;5.38;3.50;;;12.60;99.90;;;;;;5067158;28;20342;-75
2021/10/06 09:40:20;;;;;;;3.77;3.27;;;12.70;99.90;;;;;;5097285;28;20095;-75
2021/10/06 09:42:51;;;;;;;3.90;3.50;;;12.70;99.90;;;;;;5083975;28;20122;-75
2021/10/06 09:45:27;;;;;;;4.53;3.17;;;12.80;99.90;;;;;;5062661;28;20509;-75
2021/10/06 09:48:12;;;;;;;5.40;3.25;;;12.80;99.90;;;;;;5078333;28;20044;-76
2021/10/06 09:50:44;;;;;;;6.28;4.63;;;12.90;99.90;;;;;;5080582;28;20040;-75
2021/10/06 09:53:15;;;;;;;5.32;3.70;;;13.00;99.90;;;;;;5078935;28;20047;-75
2021/10/06 09:55:43;;;;;;;5.18;3.53;;;13.10;99.90;;;;;;5069377;28;20036;-75
2021/10/06 09:58:10;;;;;;;7.78;3.65;;;13.20;99.90;;;;;;5080425;28;20753;-75
2021/10/06 10:00:38;;;;;;;7.72;4.55;;;13.20;99.90;;;;;;5056349;28;20123;-75
2021/10/06 10:03:05;;;;;;;6.07;3.30;;;13.30;99.90;;;;;;5087299;28;20052;-75
2021/10/06 10:05:33;;;;;;;7.40;3.90;;;13.30;99.90;;;;;;5058240;28;20044;-75
2021/10/06 10:08:01;;;;;;;6.07;4.88;;;13.40;99.90;;;;;;5071675;28;20068;-75
2021/10/06 10:10:26;;;;;;;4.43;3.92;;;13.50;99.90;;;;;;5080155;28;20044;-74
2021/10/06 10:12:53;;;;;;;5.43;3.00;;;13.50;99.90;;;;;;5081953;28;20032;-75
2021/10/06 10:15:20;;;;;;;7.53;4.95;;;13.40;99.90;;;;;;5077950;28;20052;-75
2021/10/06 10:17:56;;;;;;;6.40;3.20;;;13.50;99.90;;;;;;5072129;28;20036;-74
2021/10/06 10:20:22;;;;;;;3.63;3.33;;;13.50;99.90;;;;;;5082738;28;20044;-76
2021/10/06 10:22:56;;;;;;;4.32;3.60;;;13.60;99.90;;;;;;5086560;28;20047;-76
2021/10/06 10:25:27;;;;;;;3.35;3.05;;;13.60;99.90;;;;;;5088139;28;20089;-76
2021/10/06 10:28:07;;;;;;;5.22;3.20;;;13.70;99.90;;;;;;5087817;28;20043;-76
2021/10/06 10:30:35;;;;;;;3.83;3.00;;;13.90;99.90;;;;;;5080389;28;20481;-76
2021/10/06 10:33:01;;;;;;;5.13;3.40;;;14.00;99.90;;;;;;5088154;28;20085;-76
2021/10/06 10:35:34;;;;;;;3.50;3.20;;;14.10;99.90;;;;;;5087650;28;20040;-75
2021/10/06 10:38:00;;;;;;;5.80;3.15;;;14.10;99.90;;;;;;5087259;28;20056;-76
2021/10/06 10:40:34;;;;;;;5.32;3.05;;;14.20;99.90;;;;;;5087183;28;20425;-76
2021/10/06 10:43:00;;;;;;;3.67;3.00;;;14.30;99.90;;;;;;5095403;28;20104;-76
2021/10/06 10:45:47;;;;;;;3.78;2.78;;;14.40;99.90;;;;;;5103211;28;20040;-76
2021/10/06 10:48:16;;;;;;;3.05;2.78;;;14.50;99.90;;;;;;5086409;28;20058;-76
2021/10/06 10:50:44;;;;;;;4.32;2.70;;;14.50;99.90;;;;;;5069751;28;20048;-75
2021/10/06 10:53:18;;;;;;;3.55;2.45;;;14.60;99.90;;;;;;5071272;28;20414;-76
2021/10/06 10:55:54;;;;;;;3.92;2.58;;;14.70;99.90;;;;;;5088134;28;20067;-76
2021/10/06 10:58:43;;;;;;;3.78;3.13;;;14.90;99.90;;;;;;5088388;28;20036;-76
2021/10/06 11:01:15;;;;;;;4.47;2.45;;;15.20;99.90;;;;;;5086602;28;20393;-76
2021/10/06 11:04:27;;;;;;;3.10;2.20;;;15.40;99.90;;;;;;5086223;28;20062;-76
2021/10/06 11:07:13;;;;;;;5.05;2.20;;;15.60;99.90;;;;;;5084634;28;20059;-76
2021/10/06 11:09:43;;;;;;;7.63;2.80;;;15.90;99.90;;;;;;5087892;28;20044;-76
2021/10/06 11:12:11;;;;;;;3.65;2.42;;;16.00;99.90;;;;;;5071072;28;20044;-76
2021/10/06 11:14:40;;;;;;;2.95;2.35;;;16.10;99.90;;;;;;5086719;28;20068;-76
2021/10/06 11:17:14;;;;;;;3.10;2.35;;;16.00;99.90;;;;;;5067034;28;20039;-76
2021/10/06 11:19:55;;;;;;;3.42;2.35;;;16.00;99.90;;;;;;5087155;28;20040;-76
2021/10/06 11:22:23;;;;;;;2.05;1.90;;;16.00;99.90;;;;;;5070344;28;20044;-76
2021/10/06 11:24:53;;;;;;;3.60;2.10;;;15.90;99.90;;;;;;5087769;28;20104;-76
2021/10/06 11:27:22;;;;;;;2.97;2.00;;;15.90;99.90;;;;;;5088501;28;20048;-75
2021/10/06 11:29:51;;;;;;;3.95;2.10;;;15.80;99.90;;;;;;5091339;28;20051;-76
2021/10/06 11:32:17;;;;;;;2.95;1.77;;;15.80;99.90;;;;;;5090832;28;20043;-75
2021/10/06 11:34:51;;;;;;;3.20;2.10;;;15.70;99.90;;;;;;5072777;28;20106;-76
2021/10/06 11:37:23;;;;;;;4.05;1.70;;;15.70;99.90;;;;;;5089047;28;20063;-75
2021/10/06 11:39:49;;;;;;;2.97;1.60;;;15.80;99.90;;;;;;5090883;28;20378;-76
2021/10/06 11:42:15;;;;;;;2.70;1.58;;;15.80;99.90;;;;;;5074119;28;20082;-76
2021/10/06 11:44:41;;;;;;;4.00;1.70;;;15.80;99.90;;;;;;5092168;28;20481;-76
2021/10/06 11:47:09;;;;;;;3.13;1.98;;;15.80;99.90;;;;;;5091331;28;20040;-76
2021/10/06 11:49:38;;;;;;;3.88;1.90;;;15.80;99.90;;;;;;5074010;28;20578;-76
2021/10/06 11:52:05;;;;;;;4.30;2.13;;;15.80;99.90;;;;;;5073783;28;20079;-76
2021/10/06 11:54:31;;;;;;;3.17;1.85;;;15.80;99.90;;;;;;5074491;28;20040;-76
2021/10/06 11:56:59;;;;;;;3.42;1.92;;;15.90;99.90;;;;;;5073995;28;20058;-76
2021/10/06 11:59:27;;;;;;;3.47;1.77;;;15.80;99.90;;;;;;5089795;28;20051;-76
2021/10/06 12:02:04;;;;;;;2.55;1.90;;;15.70;99.90;;;;;;5073140;28;20127;-76
2021/10/06 12:04:35;;;;;;;2.58;2.03;;;15.60;99.90;;;;;;5073693;28;20431;-76
2021/10/06 12:07:12;;;;;;;3.28;2.38;;;15.60;99.90;;;;;;5073905;28;20050;-76
2021/10/06 12:09:48;;;;;;;3.72;2.10;;;15.50;99.90;;;;;;5090733;28;20358;-76
2021/10/06 12:12:29;;;;;;;3.38;1.90;;;15.50;99.90;;;;;;5072597;28;20043;-76
2021/10/06 12:14:59;;;;;;;2.88;1.90;;;15.50;99.90;;;;;;5090893;28;20489;-75
2021/10/06 12:17:34;;;;;;;3.40;2.05;;;15.50;99.90;;;;;;5086481;28;20036;-76
2021/10/06 12:20:13;;;;;;;3.42;2.10;;;15.50;99.90;;;;;;5089611;28;20044;-76
2021/10/06 12:22:47;;;;;;;3.45;2.10;;;15.40;99.90;;;;;;5085827;28;20036;-75
2021/10/06 12:25:18;;;;;;;2.50;1.90;;;15.40;99.90;;;;;;5079141;28;20389;-75
2021/10/06 12:27:47;;;;;;;3.15;2.13;;;15.30;99.90;;;;;;5074138;28;20377;-75
2021/10/06 12:30:16;;;;;;;2.72;2.22;;;15.30;99.90;;;;;;5089127;28;20076;-75
2021/10/06 12:32:45;;;;;;;3.75;2.15;;;15.30;99.90;;;;;;5070069;28;20093;-75
2021/10/06 12:35:13;;;;;;;2.40;2.20;;;15.20;99.90;;;;;;5089319;28;20039;-76
2021/10/06 12:37:55;;;;;;;2.13;1.90;;;15.20;99.90;;;;;;5087530;28;20136;-76
2021/10/06 12:40:39;;;;;;;3.20;2.28;;;15.10;99.90;;;;;;5086933;28;20052;-76
2021/10/06 12:43:09;;;;;;;3.20;2.10;;;15.10;99.90;;;;;;5071911;28;20090;-75
2021/10/06 12:45:36;;;;;;;2.75;1.80;;;15.10;99.90;;;;;;5089848;28;20052;-75
2021/10/06 12:48:01;;;;;;;3.45;1.67;;;15.10;99.90;;;;;;5088748;28;20044;-75